sensor_id;sensor_type;location;lat;lon;timestamp;P1;durP1;ratioP1;P2;durP2;ratioP2
70253;SDS011;57649;42.968;1.608;2023-12-28T08:39:24;16.27;;;8.52;;
70253;SDS011;57649;42.968;1.608;2023-12-28T08:41:49;16.13;;;9.15;;
70253;SDS011;57649;42.968;1.608;2023-12-28T08:44:14;16.00;;;9.15;;
70253;SDS011;57649;42.968;1.608;2023-12-28T08:46:40;17.00;;;9.65;;
70253;SDS011;57649;42.968;1.608;2023-12-28T08:49:05;15.48;;;10.18;;
70253;SDS011;57649;42.968;1.608;2023-12-28T08:51:30;19.85;;;11.57;;
70253;SDS011;57649;42.968;1.608;2023-12-28T08:53:58;17.80;;;10.25;;
70253;SDS011;57649;42.968;1.608;2023-12-28T08:56:23;17.83;;;11.02;;
70253;SDS011;57649;42.968;1.608;2023-12-28T08:58:50;21.02;;;10.68;;
70253;SDS011;57649;42.968;1.608;2023-12-28T09:01:20;18.38;;;10.60;;
70253;SDS011;57649;42.968;1.608;2023-12-28T09:03:50;19.35;;;11.95;;
70253;SDS011;57649;42.968;1.608;2023-12-28T09:06:17;26.17;;;14.68;;
70253;SDS011;57649;42.968;1.608;2023-12-28T09:08:44;22.92;;;12.40;;
70253;SDS011;57649;42.968;1.608;2023-12-28T09:11:17;19.27;;;11.50;;
70253;SDS011;57649;42.968;1.608;2023-12-28T09:13:43;17.95;;;10.77;;
70253;SDS011;57649;42.968;1.608;2023-12-28T09:16:10;23.55;;;13.07;;
70253;SDS011;57649;42.968;1.608;2023-12-28T09:18:38;21.70;;;10.38;;
70253;SDS011;57649;42.968;1.608;2023-12-28T09:21:04;15.75;;;9.35;;
70253;SDS011;57649;42.968;1.608;2023-12-28T09:23:31;15.38;;;9.50;;
70253;SDS011;57649;42.968;1.608;2023-12-28T09:25:58;18.08;;;10.07;;
70253;SDS011;57649;42.968;1.608;2023-12-28T09:28:25;17.52;;;10.98;;
70253;SDS011;57649;42.968;1.608;2023-12-28T09:30:50;21.25;;;11.60;;
70253;SDS011;57649;42.968;1.608;2023-12-28T09:33:15;18.30;;;11.40;;
70253;SDS011;57649;42.968;1.608;2023-12-28T09:35:41;15.23;;;9.65;;
70253;SDS011;57649;42.968;1.608;2023-12-28T09:38:07;17.02;;;12.18;;
70253;SDS011;57649;42.968;1.608;2023-12-28T09:40:33;17.30;;;11.35;;
70253;SDS011;57649;42.968;1.608;2023-12-28T09:45:54;20.05;;;13.02;;
70253;SDS011;57649;42.968;1.608;2023-12-28T09:48:20;22.15;;;13.77;;
70253;SDS011;57649;42.968;1.608;2023-12-28T09:50:49;20.87;;;12.40;;
70253;SDS011;57649;42.968;1.608;2023-12-28T09:55:48;24.88;;;14.77;;
70253;SDS011;57649;42.968;1.608;2023-12-28T09:58:16;23.00;;;13.77;;
70253;SDS011;57649;42.968;1.608;2023-12-28T10:00:44;19.58;;;12.82;;
70253;SDS011;57649;42.968;1.608;2023-12-28T10:03:10;26.58;;;14.35;;
70253;SDS011;57649;42.968;1.608;2023-12-28T10:05:37;26.40;;;15.95;;
70253;SDS011;57649;42.968;1.608;2023-12-28T10:08:02;35.17;;;21.13;;
70253;SDS011;57649;42.968;1.608;2023-12-28T10:10:28;41.03;;;22.25;;
70253;SDS011;57649;42.968;1.608;2023-12-28T10:12:54;30.35;;;16.52;;
70253;SDS011;57649;42.968;1.608;2023-12-28T10:15:20;25.17;;;14.43;;
70253;SDS011;57649;42.968;1.608;2023-12-28T10:17:45;24.42;;;14.43;;
70253;SDS011;57649;42.968;1.608;2023-12-28T10:20:16;28.13;;;14.23;;
70253;SDS011;57649;42.968;1.608;2023-12-28T10:22:42;27.27;;;14.35;;
70253;SDS011;57649;42.968;1.608;2023-12-28T10:25:08;24.33;;;14.48;;
70253;SDS011;57649;42.968;1.608;2023-12-28T10:27:37;27.65;;;14.40;;
70253;SDS011;57649;42.968;1.608;2023-12-28T10:30:10;21.52;;;13.80;;
70253;SDS011;57649;42.968;1.608;2023-12-28T10:32:41;24.20;;;14.05;;
70253;SDS011;57649;42.968;1.608;2023-12-28T10:35:07;23.63;;;13.50;;
70253;SDS011;57649;42.968;1.608;2023-12-28T10:37:32;23.92;;;13.15;;
70253;SDS011;57649;42.968;1.608;2023-12-28T10:40:00;25.48;;;13.82;;
70253;SDS011;57649;42.968;1.608;2023-12-28T10:42:31;26.75;;;15.18;;
70253;SDS011;57649;42.968;1.608;2023-12-28T10:45:01;27.65;;;15.77;;
70253;SDS011;57649;42.968;1.608;2023-12-28T10:47:33;24.30;;;14.38;;
70253;SDS011;57649;42.968;1.608;2023-12-28T10:50:03;27.58;;;14.88;;
70253;SDS011;57649;42.968;1.608;2023-12-28T10:52:31;25.20;;;14.10;;
70253;SDS011;57649;42.968;1.608;2023-12-28T11:00:30;19.83;;;13.52;;
70253;SDS011;57649;42.968;1.608;2023-12-28T11:03:02;20.05;;;12.10;;
70253;SDS011;57649;42.968;1.608;2023-12-28T11:05:34;21.73;;;13.63;;
70253;SDS011;57649;42.968;1.608;2023-12-28T11:08:00;25.90;;;16.58;;
70253;SDS011;57649;42.968;1.608;2023-12-28T11:10:29;13.65;;;8.90;;
70253;SDS011;57649;42.968;1.608;2023-12-28T11:12:56;14.48;;;9.30;;
70253;SDS011;57649;42.968;1.608;2023-12-28T11:15:22;14.52;;;8.13;;
70253;SDS011;57649;42.968;1.608;2023-12-28T11:17:50;15.15;;;8.88;;
70253;SDS011;57649;42.968;1.608;2023-12-28T11:20:17;15.00;;;9.75;;
70253;SDS011;57649;42.968;1.608;2023-12-28T11:22:42;14.77;;;8.85;;
70253;SDS011;57649;42.968;1.608;2023-12-28T11:25:15;12.90;;;8.30;;
70253;SDS011;57649;42.968;1.608;2023-12-28T11:27:45;13.10;;;7.15;;
70253;SDS011;57649;42.968;1.608;2023-12-28T11:30:11;11.15;;;6.43;;
70253;SDS011;57649;42.968;1.608;2023-12-28T11:32:38;12.52;;;6.72;;
70253;SDS011;57649;42.968;1.608;2023-12-28T11:35:07;14.55;;;8.20;;
70253;SDS011;57649;42.968;1.608;2023-12-28T11:37:36;12.88;;;8.48;;
70253;SDS011;57649;42.968;1.608;2023-12-28T11:40:13;12.82;;;8.55;;
70253;SDS011;57649;42.968;1.608;2023-12-28T11:42:51;17.75;;;10.48;;
70253;SDS011;57649;42.968;1.608;2023-12-28T11:45:18;19.60;;;12.25;;
70253;SDS011;57649;42.968;1.608;2023-12-28T11:47:45;25.55;;;13.98;;
70253;SDS011;57649;42.968;1.608;2023-12-28T11:50:11;21.80;;;13.20;;
70253;SDS011;57649;42.968;1.608;2023-12-28T11:52:38;20.83;;;13.40;;
70253;SDS011;57649;42.968;1.608;2023-12-28T11:55:03;16.80;;;11.57;;
70253;SDS011;57649;42.968;1.608;2023-12-28T11:57:29;18.02;;;12.00;;
70253;SDS011;57649;42.968;1.608;2023-12-28T11:59:56;18.70;;;11.00;;
70253;SDS011;57649;42.968;1.608;2023-12-28T12:02:26;19.52;;;11.15;;
70253;SDS011;57649;42.968;1.608;2023-12-28T12:04:51;14.13;;;9.75;;
70253;SDS011;57649;42.968;1.608;2023-12-28T12:07:18;17.02;;;10.38;;
70253;SDS011;57649;42.968;1.608;2023-12-28T12:09:44;15.55;;;9.85;;
70253;SDS011;57649;42.968;1.608;2023-12-28T12:12:09;12.52;;;8.57;;
70253;SDS011;57649;42.968;1.608;2023-12-28T12:14:35;18.20;;;10.32;;
70253;SDS011;57649;42.968;1.608;2023-12-28T12:17:00;13.77;;;9.90;;
70253;SDS011;57649;42.968;1.608;2023-12-28T12:19:26;15.07;;;9.55;;
70253;SDS011;57649;42.968;1.608;2023-12-28T12:21:52;19.80;;;10.68;;
70253;SDS011;57649;42.968;1.608;2023-12-28T12:24:18;15.82;;;10.70;;
70253;SDS011;57649;42.968;1.608;2023-12-28T12:26:47;16.67;;;11.38;;
70253;SDS011;57649;42.968;1.608;2023-12-28T12:29:14;21.70;;;14.60;;
70253;SDS011;57649;42.968;1.608;2023-12-28T12:31:39;15.27;;;10.02;;
70253;SDS011;57649;42.968;1.608;2023-12-28T12:34:07;16.08;;;9.35;;
70253;SDS011;57649;42.968;1.608;2023-12-28T12:36:33;10.82;;;7.80;;
70253;SDS011;57649;42.968;1.608;2023-12-28T12:38:58;19.90;;;11.45;;
70253;SDS011;57649;42.968;1.608;2023-12-28T12:41:24;16.00;;;10.18;;
70253;SDS011;57649;42.968;1.608;2023-12-28T12:43:51;20.75;;;12.02;;
70253;SDS011;57649;42.968;1.608;2023-12-28T12:46:17;22.05;;;14.40;;
70253;SDS011;57649;42.968;1.608;2023-12-28T12:48:42;25.60;;;16.50;;
70253;SDS011;57649;42.968;1.608;2023-12-28T12:51:08;25.08;;;15.55;;
70253;SDS011;57649;42.968;1.608;2023-12-28T12:53:33;26.20;;;16.60;;
70253;SDS011;57649;42.968;1.608;2023-12-28T12:56:00;27.63;;;17.60;;
70253;SDS011;57649;42.968;1.608;2023-12-28T12:58:25;28.20;;;16.77;;
70253;SDS011;57649;42.968;1.608;2023-12-28T13:00:52;23.23;;;15.48;;
70253;SDS011;57649;42.968;1.608;2023-12-28T13:03:19;24.83;;;15.65;;
70253;SDS011;57649;42.968;1.608;2023-12-28T13:05:45;27.40;;;16.63;;
70253;SDS011;57649;42.968;1.608;2023-12-28T13:08:10;27.88;;;18.00;;
70253;SDS011;57649;42.968;1.608;2023-12-28T13:10:36;24.77;;;15.20;;
70253;SDS011;57649;42.968;1.608;2023-12-28T13:13:01;21.65;;;14.38;;
70253;SDS011;57649;42.968;1.608;2023-12-28T13:15:27;28.63;;;16.73;;
70253;SDS011;57649;42.968;1.608;2023-12-28T13:17:52;32.60;;;17.05;;
70253;SDS011;57649;42.968;1.608;2023-12-28T13:20:18;26.95;;;17.10;;
70253;SDS011;57649;42.968;1.608;2023-12-28T13:22:43;24.42;;;16.20;;
70253;SDS011;57649;42.968;1.608;2023-12-28T13:25:09;23.85;;;16.42;;
70253;SDS011;57649;42.968;1.608;2023-12-28T13:27:34;23.45;;;15.98;;
70253;SDS011;57649;42.968;1.608;2023-12-28T13:29:59;24.77;;;16.40;;
70253;SDS011;57649;42.968;1.608;2023-12-28T13:32:25;27.08;;;18.10;;
70253;SDS011;57649;42.968;1.608;2023-12-28T13:34:50;29.80;;;17.75;;
70253;SDS011;57649;42.968;1.608;2023-12-28T13:37:16;24.13;;;16.60;;
70253;SDS011;57649;42.968;1.608;2023-12-28T13:39:42;23.15;;;16.27;;
70253;SDS011;57649;42.968;1.608;2023-12-28T13:42:08;24.90;;;16.67;;
70253;SDS011;57649;42.968;1.608;2023-12-28T13:44:34;25.00;;;16.45;;
70253;SDS011;57649;42.968;1.608;2023-12-28T13:47:00;30.88;;;17.63;;
70253;SDS011;57649;42.968;1.608;2023-12-28T13:49:26;23.50;;;15.50;;
70253;SDS011;57649;42.968;1.608;2023-12-28T13:51:52;26.65;;;17.52;;
70253;SDS011;57649;42.968;1.608;2023-12-28T13:54:17;29.60;;;16.33;;
70253;SDS011;57649;42.968;1.608;2023-12-28T13:56:44;25.15;;;16.42;;
70253;SDS011;57649;42.968;1.608;2023-12-28T13:59:10;25.05;;;17.73;;
70253;SDS011;57649;42.968;1.608;2023-12-28T14:01:36;29.70;;;19.05;;
70253;SDS011;57649;42.968;1.608;2023-12-28T14:04:02;24.52;;;18.10;;
70253;SDS011;57649;42.968;1.608;2023-12-28T14:06:28;24.00;;;14.80;;
70253;SDS011;57649;42.968;1.608;2023-12-28T14:08:54;24.65;;;14.75;;
70253;SDS011;57649;42.968;1.608;2023-12-28T14:11:19;22.92;;;14.48;;
70253;SDS011;57649;42.968;1.608;2023-12-28T14:13:44;23.52;;;14.80;;
70253;SDS011;57649;42.968;1.608;2023-12-28T14:16:10;23.33;;;14.13;;
70253;SDS011;57649;42.968;1.608;2023-12-28T14:18:35;25.45;;;16.23;;
70253;SDS011;57649;42.968;1.608;2023-12-28T14:21:01;24.67;;;16.08;;
70253;SDS011;57649;42.968;1.608;2023-12-28T14:23:26;22.65;;;15.50;;
70253;SDS011;57649;42.968;1.608;2023-12-28T14:25:52;22.25;;;14.82;;
70253;SDS011;57649;42.968;1.608;2023-12-28T14:28:20;21.13;;;12.98;;
70253;SDS011;57649;42.968;1.608;2023-12-28T14:30:46;25.77;;;13.90;;
70253;SDS011;57649;42.968;1.608;2023-12-28T14:33:12;18.70;;;13.82;;
70253;SDS011;57649;42.968;1.608;2023-12-28T14:35:38;24.85;;;14.68;;
70253;SDS011;57649;42.968;1.608;2023-12-28T14:38:07;20.48;;;13.25;;
70253;SDS011;57649;42.968;1.608;2023-12-28T14:40:33;19.27;;;13.27;;
70253;SDS011;57649;42.968;1.608;2023-12-28T14:42:58;21.30;;;13.63;;
70253;SDS011;57649;42.968;1.608;2023-12-28T14:45:24;19.30;;;13.57;;
70253;SDS011;57649;42.968;1.608;2023-12-28T14:47:49;21.20;;;13.00;;
70253;SDS011;57649;42.968;1.608;2023-12-28T14:50:17;17.80;;;12.75;;
70253;SDS011;57649;42.968;1.608;2023-12-28T14:52:45;23.25;;;13.98;;
70253;SDS011;57649;42.968;1.608;2023-12-28T14:55:10;24.75;;;15.27;;
70253;SDS011;57649;42.968;1.608;2023-12-28T14:57:36;24.63;;;14.65;;
70253;SDS011;57649;42.968;1.608;2023-12-28T15:00:02;30.20;;;15.82;;
70253;SDS011;57649;42.968;1.608;2023-12-28T15:02:29;28.27;;;17.08;;
70253;SDS011;57649;42.968;1.608;2023-12-28T15:04:54;24.80;;;17.25;;
70253;SDS011;57649;42.968;1.608;2023-12-28T15:07:21;29.08;;;17.60;;
70253;SDS011;57649;42.968;1.608;2023-12-28T15:09:46;26.80;;;18.52;;
70253;SDS011;57649;42.968;1.608;2023-12-28T15:12:11;25.13;;;16.40;;
70253;SDS011;57649;42.968;1.608;2023-12-28T15:14:37;24.40;;;16.50;;
70253;SDS011;57649;42.968;1.608;2023-12-28T15:17:03;24.52;;;15.32;;
70253;SDS011;57649;42.968;1.608;2023-12-28T15:19:29;25.52;;;15.80;;
70253;SDS011;57649;42.968;1.608;2023-12-28T15:21:55;24.05;;;15.75;;
70253;SDS011;57649;42.968;1.608;2023-12-28T15:24:21;21.27;;;14.60;;
70253;SDS011;57649;42.968;1.608;2023-12-28T15:26:47;24.63;;;16.45;;
70253;SDS011;57649;42.968;1.608;2023-12-28T15:29:12;23.45;;;16.48;;
70253;SDS011;57649;42.968;1.608;2023-12-28T15:31:38;24.52;;;16.35;;
70253;SDS011;57649;42.968;1.608;2023-12-28T15:34:04;24.52;;;16.67;;
70253;SDS011;57649;42.968;1.608;2023-12-28T15:36:29;22.88;;;15.50;;
70253;SDS011;57649;42.968;1.608;2023-12-28T15:38:55;24.63;;;16.30;;
70253;SDS011;57649;42.968;1.608;2023-12-28T15:41:20;22.15;;;15.15;;
70253;SDS011;57649;42.968;1.608;2023-12-28T15:43:45;23.60;;;15.27;;
70253;SDS011;57649;42.968;1.608;2023-12-28T15:46:11;24.88;;;15.15;;
70253;SDS011;57649;42.968;1.608;2023-12-28T15:48:36;22.42;;;14.75;;
70253;SDS011;57649;42.968;1.608;2023-12-28T15:51:02;20.20;;;14.40;;
70253;SDS011;57649;42.968;1.608;2023-12-28T15:53:27;25.17;;;16.92;;
70253;SDS011;57649;42.968;1.608;2023-12-28T15:55:53;22.52;;;15.80;;
70253;SDS011;57649;42.968;1.608;2023-12-28T15:58:19;19.08;;;13.48;;
70253;SDS011;57649;42.968;1.608;2023-12-28T16:00:47;18.08;;;12.23;;
70253;SDS011;57649;42.968;1.608;2023-12-28T16:03:12;38.63;;;20.60;;
70253;SDS011;57649;42.968;1.608;2023-12-28T16:05:40;33.60;;;18.55;;
70253;SDS011;57649;42.968;1.608;2023-12-28T16:08:05;24.83;;;14.63;;
70253;SDS011;57649;42.968;1.608;2023-12-28T16:10:31;38.05;;;21.10;;
70253;SDS011;57649;42.968;1.608;2023-12-28T16:12:56;25.27;;;17.63;;
70253;SDS011;57649;42.968;1.608;2023-12-28T16:15:22;26.88;;;18.25;;
70253;SDS011;57649;42.968;1.608;2023-12-28T16:17:48;25.92;;;16.38;;
70253;SDS011;57649;42.968;1.608;2023-12-28T16:20:14;21.92;;;14.27;;
70253;SDS011;57649;42.968;1.608;2023-12-28T16:22:40;27.88;;;19.60;;
70253;SDS011;57649;42.968;1.608;2023-12-28T16:25:05;31.33;;;22.65;;
70253;SDS011;57649;42.968;1.608;2023-12-28T16:27:31;38.35;;;24.02;;
70253;SDS011;57649;42.968;1.608;2023-12-28T16:29:57;40.63;;;27.13;;
70253;SDS011;57649;42.968;1.608;2023-12-28T16:32:22;41.47;;;28.42;;
70253;SDS011;57649;42.968;1.608;2023-12-28T16:34:48;48.63;;;32.30;;
70253;SDS011;57649;42.968;1.608;2023-12-28T16:37:13;50.72;;;32.88;;
70253;SDS011;57649;42.968;1.608;2023-12-28T16:39:39;43.97;;;30.02;;
70253;SDS011;57649;42.968;1.608;2023-12-28T16:42:12;38.75;;;27.30;;
70253;SDS011;57649;42.968;1.608;2023-12-28T16:44:40;54.45;;;30.67;;
70253;SDS011;57649;42.968;1.608;2023-12-28T16:47:05;48.38;;;28.05;;
70253;SDS011;57649;42.968;1.608;2023-12-28T16:49:31;41.50;;;26.58;;
70253;SDS011;57649;42.968;1.608;2023-12-28T16:51:56;42.20;;;27.00;;
70253;SDS011;57649;42.968;1.608;2023-12-28T16:54:22;36.90;;;24.38;;
70253;SDS011;57649;42.968;1.608;2023-12-28T16:56:47;39.33;;;26.02;;
70253;SDS011;57649;42.968;1.608;2023-12-28T16:59:13;44.00;;;25.98;;
70253;SDS011;57649;42.968;1.608;2023-12-28T17:01:40;43.03;;;26.85;;
70253;SDS011;57649;42.968;1.608;2023-12-28T17:04:06;39.00;;;24.95;;
70253;SDS011;57649;42.968;1.608;2023-12-28T17:06:31;41.78;;;24.17;;
70253;SDS011;57649;42.968;1.608;2023-12-28T17:08:57;38.45;;;24.20;;
70253;SDS011;57649;42.968;1.608;2023-12-28T17:11:25;36.20;;;23.30;;
70253;SDS011;57649;42.968;1.608;2023-12-28T17:13:51;34.25;;;22.85;;
70253;SDS011;57649;42.968;1.608;2023-12-28T17:16:16;38.15;;;24.38;;
70253;SDS011;57649;42.968;1.608;2023-12-28T17:18:43;39.85;;;23.90;;
70253;SDS011;57649;42.968;1.608;2023-12-28T17:21:11;35.50;;;22.50;;
70253;SDS011;57649;42.968;1.608;2023-12-28T17:23:44;39.95;;;24.98;;
70253;SDS011;57649;42.968;1.608;2023-12-28T17:28:54;44.33;;;26.67;;
70253;SDS011;57649;42.968;1.608;2023-12-28T17:31:32;42.55;;;26.73;;
70253;SDS011;57649;42.968;1.608;2023-12-28T17:34:00;48.35;;;28.50;;
70253;SDS011;57649;42.968;1.608;2023-12-28T17:36:26;43.75;;;27.67;;
70253;SDS011;57649;42.968;1.608;2023-12-28T17:38:52;45.90;;;27.40;;
70253;SDS011;57649;42.968;1.608;2023-12-28T17:41:21;50.38;;;31.35;;
70253;SDS011;57649;42.968;1.608;2023-12-28T17:43:55;36.92;;;23.20;;
70253;SDS011;57649;42.968;1.608;2023-12-28T17:46:29;40.35;;;23.40;;
70253;SDS011;57649;42.968;1.608;2023-12-28T17:48:58;36.40;;;22.60;;
70253;SDS011;57649;42.968;1.608;2023-12-28T17:51:26;36.00;;;23.38;;
70253;SDS011;57649;42.968;1.608;2023-12-28T17:53:54;36.78;;;23.20;;
70253;SDS011;57649;42.968;1.608;2023-12-28T17:56:20;34.80;;;21.38;;
70253;SDS011;57649;42.968;1.608;2023-12-28T17:58:46;34.85;;;22.85;;
70253;SDS011;57649;42.968;1.608;2023-12-28T18:01:12;41.10;;;27.83;;
70253;SDS011;57649;42.968;1.608;2023-12-28T18:03:37;46.25;;;28.45;;
70253;SDS011;57649;42.968;1.608;2023-12-28T18:06:04;47.17;;;28.38;;
70253;SDS011;57649;42.968;1.608;2023-12-28T18:08:30;48.38;;;30.50;;
70253;SDS011;57649;42.968;1.608;2023-12-28T18:10:55;53.33;;;29.83;;
70253;SDS011;57649;42.968;1.608;2023-12-28T18:13:21;45.58;;;28.02;;
70253;SDS011;57649;42.968;1.608;2023-12-28T18:15:46;42.60;;;27.95;;
70253;SDS011;57649;42.968;1.608;2023-12-28T18:18:12;41.65;;;26.70;;
70253;SDS011;57649;42.968;1.608;2023-12-28T18:20:37;41.50;;;27.35;;
70253;SDS011;57649;42.968;1.608;2023-12-28T18:23:03;42.78;;;24.80;;
70253;SDS011;57649;42.968;1.608;2023-12-28T18:25:28;42.65;;;26.30;;
70253;SDS011;57649;42.968;1.608;2023-12-28T18:27:54;46.05;;;27.35;;
70253;SDS011;57649;42.968;1.608;2023-12-28T18:30:20;52.78;;;28.98;;
70253;SDS011;57649;42.968;1.608;2023-12-28T18:32:45;43.70;;;27.98;;
70253;SDS011;57649;42.968;1.608;2023-12-28T18:35:11;42.20;;;26.05;;
70253;SDS011;57649;42.968;1.608;2023-12-28T18:37:38;41.72;;;25.98;;
70253;SDS011;57649;42.968;1.608;2023-12-28T18:40:06;42.95;;;26.45;;
70253;SDS011;57649;42.968;1.608;2023-12-28T18:42:32;41.08;;;23.38;;
70253;SDS011;57649;42.968;1.608;2023-12-28T18:44:57;36.95;;;22.58;;
70253;SDS011;57649;42.968;1.608;2023-12-28T18:47:22;37.03;;;20.65;;
70253;SDS011;57649;42.968;1.608;2023-12-28T18:49:48;33.28;;;20.08;;
70253;SDS011;57649;42.968;1.608;2023-12-28T18:52:14;36.30;;;20.73;;
70253;SDS011;57649;42.968;1.608;2023-12-28T18:54:40;33.67;;;21.10;;
70253;SDS011;57649;42.968;1.608;2023-12-28T18:57:06;30.67;;;20.40;;
70253;SDS011;57649;42.968;1.608;2023-12-28T18:59:31;32.55;;;19.92;;
70253;SDS011;57649;42.968;1.608;2023-12-28T19:01:57;34.08;;;22.48;;
70253;SDS011;57649;42.968;1.608;2023-12-28T19:04:22;32.17;;;20.27;;
70253;SDS011;57649;42.968;1.608;2023-12-28T19:06:48;25.83;;;17.75;;
70253;SDS011;57649;42.968;1.608;2023-12-28T19:09:13;26.52;;;16.98;;
70253;SDS011;57649;42.968;1.608;2023-12-28T19:11:38;29.63;;;20.10;;
70253;SDS011;57649;42.968;1.608;2023-12-28T19:14:04;25.75;;;15.40;;
70253;SDS011;57649;42.968;1.608;2023-12-28T19:16:29;26.77;;;17.00;;
70253;SDS011;57649;42.968;1.608;2023-12-28T19:18:55;24.42;;;16.27;;
70253;SDS011;57649;42.968;1.608;2023-12-28T19:21:20;25.80;;;16.50;;
70253;SDS011;57649;42.968;1.608;2023-12-28T19:23:47;30.67;;;17.65;;
70253;SDS011;57649;42.968;1.608;2023-12-28T19:26:13;32.20;;;19.13;;
70253;SDS011;57649;42.968;1.608;2023-12-28T19:28:39;28.50;;;17.15;;
70253;SDS011;57649;42.968;1.608;2023-12-28T19:31:05;29.77;;;17.75;;
70253;SDS011;57649;42.968;1.608;2023-12-28T19:33:30;25.45;;;16.65;;
70253;SDS011;57649;42.968;1.608;2023-12-28T19:35:55;26.17;;;15.20;;
70253;SDS011;57649;42.968;1.608;2023-12-28T19:38:21;26.35;;;16.52;;
70253;SDS011;57649;42.968;1.608;2023-12-28T19:40:46;23.90;;;14.10;;
70253;SDS011;57649;42.968;1.608;2023-12-28T19:43:12;25.33;;;15.98;;
70253;SDS011;57649;42.968;1.608;2023-12-28T19:45:37;25.25;;;15.23;;
70253;SDS011;57649;42.968;1.608;2023-12-28T19:48:03;28.35;;;16.92;;
70253;SDS011;57649;42.968;1.608;2023-12-28T19:50:28;29.45;;;16.65;;
70253;SDS011;57649;42.968;1.608;2023-12-28T19:52:54;28.33;;;17.27;;
70253;SDS011;57649;42.968;1.608;2023-12-28T19:55:19;25.55;;;15.00;;
70253;SDS011;57649;42.968;1.608;2023-12-28T19:57:45;26.67;;;17.52;;
70253;SDS011;57649;42.968;1.608;2023-12-28T20:00:10;26.25;;;15.60;;
70253;SDS011;57649;42.968;1.608;2023-12-28T20:02:38;30.80;;;16.10;;
70253;SDS011;57649;42.968;1.608;2023-12-28T20:05:06;24.15;;;15.27;;
70253;SDS011;57649;42.968;1.608;2023-12-28T20:07:32;24.33;;;13.57;;
70253;SDS011;57649;42.968;1.608;2023-12-28T20:09:58;31.77;;;16.50;;
70253;SDS011;57649;42.968;1.608;2023-12-28T20:12:24;28.27;;;16.42;;
70253;SDS011;57649;42.968;1.608;2023-12-28T20:14:49;24.17;;;14.30;;
70253;SDS011;57649;42.968;1.608;2023-12-28T20:17:15;24.55;;;16.13;;
70253;SDS011;57649;42.968;1.608;2023-12-28T20:19:40;25.20;;;16.00;;
70253;SDS011;57649;42.968;1.608;2023-12-28T20:22:06;24.70;;;16.17;;
70253;SDS011;57649;42.968;1.608;2023-12-28T20:24:31;24.60;;;16.17;;
70253;SDS011;57649;42.968;1.608;2023-12-28T20:26:57;27.98;;;16.58;;
70253;SDS011;57649;42.968;1.608;2023-12-28T20:29:23;26.77;;;18.45;;
70253;SDS011;57649;42.968;1.608;2023-12-28T20:31:49;31.73;;;18.75;;
70253;SDS011;57649;42.968;1.608;2023-12-28T20:34:21;34.33;;;18.05;;
70253;SDS011;57649;42.968;1.608;2023-12-28T20:36:46;29.73;;;17.92;;
70253;SDS011;57649;42.968;1.608;2023-12-28T20:39:12;27.77;;;17.88;;
70253;SDS011;57649;42.968;1.608;2023-12-28T20:41:37;28.92;;;16.55;;
70253;SDS011;57649;42.968;1.608;2023-12-28T20:44:02;25.95;;;16.67;;
70253;SDS011;57649;42.968;1.608;2023-12-28T20:46:28;26.42;;;16.27;;
70253;SDS011;57649;42.968;1.608;2023-12-28T20:48:54;27.30;;;16.70;;
70253;SDS011;57649;42.968;1.608;2023-12-28T20:51:19;29.25;;;18.45;;
70253;SDS011;57649;42.968;1.608;2023-12-28T20:53:45;30.77;;;19.15;;
70253;SDS011;57649;42.968;1.608;2023-12-28T20:56:10;30.33;;;18.35;;
70253;SDS011;57649;42.968;1.608;2023-12-28T20:58:36;31.05;;;19.38;;
70253;SDS011;57649;42.968;1.608;2023-12-28T21:01:02;34.50;;;19.25;;
70253;SDS011;57649;42.968;1.608;2023-12-28T21:03:27;29.30;;;16.20;;
70253;SDS011;57649;42.968;1.608;2023-12-28T21:05:53;26.38;;;16.77;;
70253;SDS011;57649;42.968;1.608;2023-12-28T21:08:18;29.60;;;18.80;;
70253;SDS011;57649;42.968;1.608;2023-12-28T21:10:43;36.00;;;20.70;;
70253;SDS011;57649;42.968;1.608;2023-12-28T21:13:09;28.77;;;19.17;;
70253;SDS011;57649;42.968;1.608;2023-12-28T21:15:42;37.05;;;22.85;;
70253;SDS011;57649;42.968;1.608;2023-12-28T21:18:11;34.67;;;23.02;;
70253;SDS011;57649;42.968;1.608;2023-12-28T21:20:36;38.45;;;21.80;;
70253;SDS011;57649;42.968;1.608;2023-12-28T21:23:02;35.40;;;22.30;;
70253;SDS011;57649;42.968;1.608;2023-12-28T21:25:27;33.97;;;21.38;;
70253;SDS011;57649;42.968;1.608;2023-12-28T21:27:53;34.38;;;20.63;;
70253;SDS011;57649;42.968;1.608;2023-12-28T21:30:18;35.35;;;20.42;;
70253;SDS011;57649;42.968;1.608;2023-12-28T21:32:44;35.15;;;20.75;;
70253;SDS011;57649;42.968;1.608;2023-12-28T21:35:09;34.78;;;20.48;;
70253;SDS011;57649;42.968;1.608;2023-12-28T21:37:36;36.05;;;21.70;;
70253;SDS011;57649;42.968;1.608;2023-12-28T21:40:02;39.22;;;21.73;;
70253;SDS011;57649;42.968;1.608;2023-12-28T21:42:30;41.67;;;22.83;;
70253;SDS011;57649;42.968;1.608;2023-12-28T21:44:56;34.58;;;20.17;;
70253;SDS011;57649;42.968;1.608;2023-12-28T21:47:24;32.22;;;18.80;;
70253;SDS011;57649;42.968;1.608;2023-12-28T21:49:52;34.35;;;19.80;;
70253;SDS011;57649;42.968;1.608;2023-12-28T21:52:18;36.63;;;22.40;;
70253;SDS011;57649;42.968;1.608;2023-12-28T21:54:43;42.13;;;23.05;;
70253;SDS011;57649;42.968;1.608;2023-12-28T21:57:09;39.95;;;24.48;;
70253;SDS011;57649;42.968;1.608;2023-12-28T21:59:35;34.45;;;19.80;;
70253;SDS011;57649;42.968;1.608;2023-12-28T22:02:01;33.72;;;21.77;;
70253;SDS011;57649;42.968;1.608;2023-12-28T22:04:27;44.72;;;25.15;;
70253;SDS011;57649;42.968;1.608;2023-12-28T22:06:55;48.58;;;26.10;;
70253;SDS011;57649;42.968;1.608;2023-12-28T22:09:21;38.00;;;22.95;;
70253;SDS011;57649;42.968;1.608;2023-12-28T22:11:49;32.72;;;20.38;;
70253;SDS011;57649;42.968;1.608;2023-12-28T22:14:15;32.97;;;21.77;;
70253;SDS011;57649;42.968;1.608;2023-12-28T22:16:41;38.78;;;20.20;;
70253;SDS011;57649;42.968;1.608;2023-12-28T22:19:07;24.88;;;15.05;;
70253;SDS011;57649;42.968;1.608;2023-12-28T22:21:32;25.00;;;16.55;;
70253;SDS011;57649;42.968;1.608;2023-12-28T22:23:58;29.20;;;17.10;;
70253;SDS011;57649;42.968;1.608;2023-12-28T22:26:23;26.77;;;13.88;;
70253;SDS011;57649;42.968;1.608;2023-12-28T22:28:49;22.05;;;11.75;;
70253;SDS011;57649;42.968;1.608;2023-12-28T22:31:15;22.50;;;12.80;;
70253;SDS011;57649;42.968;1.608;2023-12-28T22:33:40;20.55;;;11.93;;
70253;SDS011;57649;42.968;1.608;2023-12-28T22:36:06;19.65;;;11.70;;
70253;SDS011;57649;42.968;1.608;2023-12-28T22:38:31;18.40;;;11.95;;
70253;SDS011;57649;42.968;1.608;2023-12-28T22:40:58;16.80;;;10.23;;
70253;SDS011;57649;42.968;1.608;2023-12-28T22:43:24;19.42;;;9.95;;
70253;SDS011;57649;42.968;1.608;2023-12-28T22:45:50;17.60;;;9.55;;
70253;SDS011;57649;42.968;1.608;2023-12-28T22:48:15;14.85;;;9.77;;
70253;SDS011;57649;42.968;1.608;2023-12-28T22:50:42;16.27;;;9.88;;
70253;SDS011;57649;42.968;1.608;2023-12-28T22:53:08;14.25;;;9.23;;
70253;SDS011;57649;42.968;1.608;2023-12-28T22:55:33;15.68;;;10.32;;
70253;SDS011;57649;42.968;1.608;2023-12-28T22:57:59;17.02;;;10.15;;
70253;SDS011;57649;42.968;1.608;2023-12-28T23:00:25;16.67;;;9.95;;
70253;SDS011;57649;42.968;1.608;2023-12-28T23:02:59;18.63;;;10.68;;
70253;SDS011;57649;42.968;1.608;2023-12-28T23:05:28;19.00;;;9.68;;
70253;SDS011;57649;42.968;1.608;2023-12-28T23:07:54;16.90;;;9.63;;
70253;SDS011;57649;42.968;1.608;2023-12-28T23:10:19;19.40;;;10.73;;